Time;durP1;ratioP1;P1;durP2;ratioP2;P2;SDS_P1;SDS_P2;PMS_P1;PMS_P2;Temp;Humidity;BMP_temperature;BMP_pressure;BME280_temperature;BME280_humidity;BME280_pressure;Samples;Min_cycle;Max_cycle;Signal;HPM_P1;HPM_P2
2022/10/20 00:01:03;;;;;;;6.47;4.72;;;;;;;11.91;40.89;99765.53;5010891;28;20422;-79
2022/10/20 00:03:29;;;;;;;9.52;5.18;;;;;;;11.55;41.30;99715.06;5010768;28;20029;-79
2022/10/20 00:06:05;;;;;;;7.20;5.10;;;;;;;11.43;41.54;99680.31;5011092;28;20025;-79
2022/10/20 00:08:30;;;;;;;7.55;5.20;;;;;;;11.83;41.78;99760.28;5011001;28;20454;-79
2022/10/20 00:10:56;;;;;;;6.32;4.80;;;;;;;11.68;41.26;99738.25;5012775;28;20026;-79
2022/10/20 00:13:23;;;;;;;7.20;5.50;;;;;;;11.66;41.71;99724.38;5014551;28;20041;-79
2022/10/20 00:15:50;;;;;;;5.88;5.28;;;;;;;11.76;41.81;99752.22;5014583;28;20418;-80
2022/10/20 00:18:15;;;;;;;14.27;5.82;;;;;;;11.86;41.48;99761.75;5014407;28;20387;-79
2022/10/20 00:20:40;;;;;;;8.23;5.57;;;;;;;11.82;42.02;99757.81;5013182;28;20036;-79
2022/10/20 00:23:06;;;;;;;7.97;5.75;;;;;;;11.64;42.27;99734.31;5013154;28;20048;-79
2022/10/20 00:25:31;;;;;;;11.00;6.43;;;;;;;11.70;42.32;99776.75;5014428;28;20108;-80
2022/10/20 00:27:57;;;;;;;9.70;6.40;;;;;;;12.06;42.11;99814.00;5014086;28;20026;-80
2022/10/20 00:30:22;;;;;;;14.75;7.05;;;;;;;11.15;42.32;99673.97;5014385;28;20506;-80
2022/10/20 00:32:48;;;;;;;12.38;7.80;;;;;;;11.47;42.40;99723.06;5014125;28;20026;-79
2022/10/20 00:35:13;;;;;;;10.63;6.70;;;;;;;11.30;42.61;99717.13;5014008;28;20030;-79
2022/10/20 00:37:38;;;;;;;11.70;6.82;;;;;;;11.70;42.90;99757.41;5013869;28;20398;-79
2022/10/20 00:40:04;;;;;;;12.90;7.38;;;;;;;11.81;42.26;99761.47;5014030;28;20517;-80
2022/10/20 00:42:30;;;;;;;14.43;8.23;;;;;;;11.93;42.43;99786.50;5012611;28;20026;-79
2022/10/20 00:44:58;;;;;;;9.30;7.15;;;;;;;11.75;41.70;99757.69;5013968;28;20034;-79
2022/10/20 00:47:35;;;;;;;9.15;7.50;;;;;;;11.72;42.21;99763.34;5012693;28;20033;-79
2022/10/20 00:50:07;;;;;;;11.88;6.82;;;;;;;10.05;42.71;99504.44;5013914;28;20025;-80
2022/10/20 00:52:33;;;;;;;12.38;7.55;;;;;;;11.51;42.40;99707.66;5013508;28;20033;-79
2022/10/20 00:55:00;;;;;;;10.93;7.47;;;;;;;11.36;42.42;99684.69;5013780;28;20079;-79
2022/10/20 00:57:27;;;;;;;14.55;8.30;;;;;;;12.07;42.23;99788.34;5013667;28;20522;-79
2022/10/20 00:59:53;;;;;;;13.70;7.72;;;;;;;11.41;42.54;99682.31;5012604;28;20030;-79
2022/10/20 01:02:19;;;;;;;11.05;7.93;;;;;;;11.70;42.50;99750.28;5013672;28;20029;-79
2022/10/20 01:04:45;;;;;;;13.25;8.45;;;;;;;12.12;42.78;99793.09;5013570;28;20026;-79
2022/10/20 01:07:10;;;;;;;10.30;7.78;;;;;;;11.29;42.94;99670.53;5012064;28;20061;-79
2022/10/20 01:09:37;;;;;;;11.75;8.48;;;;;;;11.48;42.68;99703.56;5013475;28;20112;-79
2022/10/20 01:12:42;;;;;;;10.55;7.35;;;;;;;12.02;43.32;99788.88;5013239;28;20565;-79
2022/10/20 01:15:45;;;;;;;11.85;7.38;;;;;;;11.97;43.05;99799.19;5013309;28;20076;-79
2022/10/20 01:18:23;;;;;;;14.43;7.68;;;;;;;11.93;42.65;99797.09;5013390;28;20443;-80
2022/10/20 01:21:06;;;;;;;11.43;7.38;;;;;;;11.89;42.86;99795.78;5012214;28;20041;-79
2022/10/20 01:23:43;;;;;;;9.05;7.22;;;;;;;11.87;42.44;99797.78;5013394;28;20027;-80
2022/10/20 01:26:37;;;;;;;8.68;7.35;;;;;;;11.80;42.58;99795.03;5013224;28;20030;-79
2022/10/20 01:29:21;;;;;;;10.63;7.88;;;;;;;11.72;42.73;99793.25;5013030;28;20034;-79
2022/10/20 01:32:14;;;;;;;15.07;9.32;;;;;;;11.68;42.49;99788.50;5011681;28;20029;-80
2022/10/20 01:34:50;;;;;;;18.70;7.70;;;;;;;11.61;42.68;99791.03;5013034;28;20040;-79
2022/10/20 01:37:20;;;;;;;13.18;8.63;;;;;;;11.25;42.67;99737.97;5012820;28;20026;-79
2022/10/20 01:39:52;;;;;;;13.75;7.53;;;;;;;11.63;42.67;99802.25;5013000;28;20483;-79
2022/10/20 01:42:23;;;;;;;14.13;8.38;;;;;;;11.25;42.73;99750.38;5012778;28;20029;-79
2022/10/20 01:44:54;;;;;;;18.98;8.68;;;;;;;11.22;42.40;99759.47;5012943;28;20030;-79
2022/10/20 01:47:23;;;;;;;16.15;7.63;;;;;;;11.05;43.04;99720.91;5012638;28;20033;-79
2022/10/20 01:49:51;;;;;;;11.65;7.40;;;;;;;9.92;42.81;99537.66;5012571;28;20061;-79
2022/10/20 01:52:17;;;;;;;10.70;6.93;;;;;;;10.81;42.60;99688.41;5011185;28;20460;-79
2022/10/20 01:54:43;;;;;;;9.63;7.45;;;;;;;11.35;42.94;99795.88;5012664;28;20395;-79
2022/10/20 01:57:57;;;;;;;16.20;7.90;;;;;;;11.35;43.49;99780.84;5012399;28;20061;-79
2022/10/20 02:00:23;;;;;;;16.00;7.47;;;;;;;11.29;42.50;99770.16;5012292;28;20060;-79
2022/10/20 02:03:06;;;;;;;10.07;7.93;;;;;;;11.54;43.04;99803.31;5012442;28;20487;-79
2022/10/20 02:06:02;;;;;;;14.50;8.45;;;;;;;11.54;43.41;99808.63;5011148;28;20034;-79
2022/10/20 02:08:44;;;;;;;16.15;8.93;;;;;;;11.34;43.21;99788.94;5010985;28;20058;-80
2022/10/20 02:11:24;;;;;;;11.70;7.70;;;;;;;11.57;43.56;99810.91;5012235;28;20088;-80
2022/10/20 02:13:53;;;;;;;11.82;8.70;;;;;;;11.61;43.43;99811.38;5012259;28;20041;-80
2022/10/20 02:16:32;;;;;;;11.73;7.68;;;;;;;11.36;43.24;99779.84;5012458;28;20033;-80
2022/10/20 02:18:59;;;;;;;14.20;8.68;;;;;;;11.24;43.03;99775.97;5012307;28;20036;-80
2022/10/20 02:21:25;;;;;;;16.52;9.07;;;;;;;11.62;43.57;99818.31;5011889;28;20050;-80
2022/10/20 02:23:53;;;;;;;18.25;8.30;;;;;;;11.55;42.91;99799.69;5012044;28;20108;-79
2022/10/20 02:26:22;;;;;;;19.63;9.35;;;;;;;11.68;43.06;99812.31;5012068;28;20510;-78
2022/10/20 02:28:52;;;;;;;14.68;8.18;;;;;;;10.99;43.34;99703.94;5011997;28;20021;-79
2022/10/20 02:31:18;;;;;;;12.43;8.32;;;;;;;10.94;43.28;99706.31;5011871;28;20034;-79
2022/10/20 02:33:45;;;;;;;20.85;9.43;;;;;;;10.96;43.78;99703.50;5010086;28;20038;-80
2022/10/20 02:36:19;;;;;;;23.17;9.20;;;;;;;11.46;44.06;99775.13;5011894;28;20037;-80
2022/10/20 02:38:44;;;;;;;15.68;9.20;;;;;;;11.76;43.13;99818.34;5012139;28;20502;-80
2022/10/20 02:41:10;;;;;;;16.73;9.57;;;;;;;11.76;44.00;99818.34;5011891;28;20106;-79
2022/10/20 02:43:35;;;;;;;13.95;8.95;;;;;;;11.73;43.98;99821.34;5010550;28;20030;-79
2022/10/20 02:46:01;;;;;;;17.88;9.63;;;;;;;10.87;43.60;99694.78;5011740;28;20403;-79
2022/10/20 02:48:26;;;;;;;15.85;9.48;;;;;;;10.86;43.97;99693.16;5010535;28;20030;-79
2022/10/20 02:50:52;;;;;;;12.75;8.93;;;;;;;10.76;44.30;99688.09;5010456;28;20109;-79
2022/10/20 02:53:17;;;;;;;12.10;8.57;;;;;;;11.03;44.11;99729.03;5010342;28;20034;-79
2022/10/20 02:55:42;;;;;;;14.43;9.02;;;;;;;11.40;44.02;99799.63;5011597;28;20034;-79
2022/10/20 02:58:08;;;;;;;16.30;9.20;;;;;;;11.37;43.78;99797.34;5011637;28;20029;-79
2022/10/20 03:00:34;;;;;;;15.27;9.20;;;;;;;11.03;44.18;99744.06;5010332;28;20590;-79
2022/10/20 03:02:59;;;;;;;13.65;8.57;;;;;;;11.58;44.68;99822.31;5011467;28;20025;-79
2022/10/20 03:05:25;;;;;;;12.27;9.27;;;;;;;10.69;43.97;99689.81;5010179;28;20022;-79
2022/10/20 03:07:52;;;;;;;11.88;8.48;;;;;;;11.64;44.60;99851.50;5011392;28;20469;-80
2022/10/20 03:10:17;;;;;;;14.88;8.60;;;;;;;11.06;44.47;99785.97;5010159;28;20034;-79
2022/10/20 03:12:43;;;;;;;13.65;8.25;;;;;;;11.36;44.60;99819.50;5011631;28;20030;-80
2022/10/20 03:15:08;;;;;;;14.40;9.18;;;;;;;11.34;44.79;99824.13;5011537;28;20058;-79
2022/10/20 03:17:34;;;;;;;15.80;9.10;;;;;;;11.30;44.31;99808.81;5010227;28;20025;-80
2022/10/20 03:19:59;;;;;;;16.52;8.90;;;;;;;10.77;44.75;99723.25;5011571;28;20101;-79
2022/10/20 03:22:25;;;;;;;14.25;8.77;;;;;;;10.88;44.27;99740.53;5011300;28;20422;-79
2022/10/20 03:24:50;;;;;;;16.60;8.60;;;;;;;11.16;44.12;99786.59;5011213;28;20034;-79
2022/10/20 03:27:15;;;;;;;17.25;9.57;;;;;;;11.62;44.65;99885.25;5010062;28;20029;-79
2022/10/20 03:29:41;;;;;;;13.27;8.02;;;;;;;11.62;44.32;99869.38;5011308;28;20502;-79
2022/10/20 03:32:06;;;;;;;14.77;8.75;;;;;;;10.90;44.17;99749.91;5009823;28;20590;-79
2022/10/20 03:34:32;;;;;;;17.50;9.27;;;;;;;10.89;44.72;99774.69;5009908;28;20033;-79
2022/10/20 03:36:57;;;;;;;14.65;8.88;;;;;;;11.20;44.86;99803.75;5009922;28;20107;-79
2022/10/20 03:39:22;;;;;;;14.25;9.07;;;;;;;11.65;44.66;99866.38;5009939;28;20099;-79
2022/10/20 03:41:48;;;;;;;14.45;9.57;;;;;;;11.38;44.62;99833.34;5009791;28;20553;-80
2022/10/20 03:44:13;;;;;;;14.23;9.77;;;;;;;11.21;44.68;99826.53;5010457;28;20064;-80
2022/10/20 03:46:38;;;;;;;15.25;9.70;;;;;;;11.20;44.48;99803.75;5014971;28;20048;-79
2022/10/20 03:49:04;;;;;;;12.73;9.38;;;;;;;11.66;44.90;99870.66;5015012;28;20026;-80
2022/10/20 03:51:29;;;;;;;16.40;9.75;;;;;;;10.85;44.75;99743.50;5014628;28;20026;-80
2022/10/20 03:53:55;;;;;;;14.90;8.77;;;;;;;11.63;44.71;99881.59;5014688;28;20121;-80
2022/10/20 03:56:20;;;;;;;15.18;9.35;;;;;;;11.29;45.55;99823.84;5014771;28;20574;-78
2022/10/20 03:58:46;;;;;;;15.20;9.38;;;;;;;10.69;45.44;99744.44;5014845;28;20084;-80
2022/10/20 04:01:18;;;;;;;14.15;8.85;;;;;;;10.78;45.48;99743.41;5014706;28;20030;-77
2022/10/20 04:03:44;;;;;;;13.80;9.68;;;;;;;11.61;45.42;99888.06;5013446;28;20029;-80
2022/10/20 04:06:12;;;;;;;16.00;9.60;;;;;;;11.61;45.31;99886.25;5014526;28;20083;-80
2022/10/20 04:08:37;;;;;;;13.77;9.68;;;;;;;11.19;45.61;99814.50;5014538;28;20449;-78
2022/10/20 04:11:03;;;;;;;14.15;9.07;;;;;;;11.61;45.95;99874.84;5014589;28;20083;-80
2022/10/20 04:13:28;;;;;;;14.38;9.73;;;;;;;10.53;46.06;99734.78;5013117;28;20105;-80
2022/10/20 04:15:54;;;;;;;16.85;10.07;;;;;;;11.16;45.80;99799.00;5014754;28;20144;-79
2022/10/20 04:18:19;;;;;;;17.33;10.38;;;;;;;11.45;46.10;99844.88;5014491;28;20037;-79
2022/10/20 04:20:47;;;;;;;15.70;10.60;;;;;;;11.30;46.49;99825.47;5013074;28;20041;-79
2022/10/20 04:23:12;;;;;;;18.05;11.60;;;;;;;11.64;47.03;99872.66;5014357;28;20025;-79
2022/10/20 04:25:47;;;;;;;20.67;12.38;;;;;;;11.63;46.73;99880.78;5014389;28;20036;-79
2022/10/20 04:28:17;;;;;;;24.10;13.27;;;;;;;11.19;46.57;99801.28;5014363;28;20487;-79
2022/10/20 04:30:43;;;;;;;21.10;12.38;;;;;;;11.30;46.32;99825.47;5014297;28;20509;-80
2022/10/20 04:33:09;;;;;;;23.05;15.07;;;;;;;11.24;46.09;99812.16;5013122;28;20032;-79
2022/10/20 04:35:34;;;;;;;27.75;15.98;;;;;;;11.11;46.39;99802.94;5014279;28;20029;-79
2022/10/20 04:38:00;;;;;;;22.33;16.75;;;;;;;11.54;46.24;99882.66;5012796;28;20026;-79
2022/10/20 04:40:25;;;;;;;21.80;16.25;;;;;;;11.34;45.74;99858.50;5014048;28;20101;-79
2022/10/20 04:42:51;;;;;;;35.30;18.50;;;;;;;11.44;46.07;99882.06;5012750;28;20495;-79
2022/10/20 04:45:16;;;;;;;34.63;18.58;;;;;;;10.90;45.98;99820.41;5014226;28;20026;-79
2022/10/20 04:47:42;;;;;;;39.75;20.45;;;;;;;10.87;46.36;99810.19;5013861;28;20021;-79
2022/10/20 04:50:08;;;;;;;29.52;17.80;;;;;;;10.94;46.50;99837.56;5012879;28;20483;-79
2022/10/20 04:52:34;;;;;;;32.88;17.52;;;;;;;11.40;46.60;99902.75;5012495;28;20026;-79
2022/10/20 04:54:59;;;;;;;35.28;18.80;;;;;;;11.00;46.65;99853.56;5012373;28;20418;-80
2022/10/20 04:57:25;;;;;;;33.95;18.08;;;;;;;11.03;46.61;99847.09;5013590;28;20029;-80
2022/10/20 04:59:50;;;;;;;26.38;16.35;;;;;;;10.84;46.29;99806.09;5013505;28;20101;-79
2022/10/20 05:02:16;;;;;;;28.88;16.10;;;;;;;11.03;46.71;99852.38;5013640;28;20065;-79
2022/10/20 05:04:42;;;;;;;28.67;15.68;;;;;;;9.02;47.01;99534.53;5012392;28;20113;-79
2022/10/20 05:07:07;;;;;;;31.42;16.73;;;;;;;11.57;46.52;99935.19;5012062;28;20207;-79
2022/10/20 05:09:32;;;;;;;37.75;21.77;;;;;;;11.29;46.46;99912.88;5013417;28;20030;-79
2022/10/20 05:11:58;;;;;;;33.88;20.83;;;;;;;10.59;46.34;99836.25;5013442;28;20034;-79
2022/10/20 05:14:24;;;;;;;35.13;20.63;;;;;;;11.12;46.65;99877.75;5013256;28;20030;-79
2022/10/20 05:16:49;;;;;;;48.08;34.92;;;;;;;11.08;46.43;99873.81;5013178;28;20061;-79
2022/10/20 05:19:15;;;;;;;43.42;30.60;;;;;;;11.56;47.18;99953.88;5013020;28;20030;-79
2022/10/20 05:21:41;;;;;;;46.78;33.15;;;;;;;10.74;47.59;99816.88;5013080;28;20103;-79
2022/10/20 05:24:07;;;;;;;44.22;31.80;;;;;;;11.19;47.31;99876.09;5011909;28;20133;-80
2022/10/20 05:26:35;;;;;;;46.83;32.17;;;;;;;11.36;47.00;99896.16;5013078;28;20546;-79
2022/10/20 05:29:04;;;;;;;38.28;30.75;;;;;;;11.83;47.63;99955.22;5012976;28;20080;-79
2022/10/20 05:31:29;;;;;;;46.70;32.83;;;;;;;11.36;47.36;99875.00;5012762;28;20045;-79
2022/10/20 05:33:56;;;;;;;47.58;33.40;;;;;;;11.38;47.58;99880.94;5012747;28;20487;-79
2022/10/20 05:36:23;;;;;;;60.22;37.75;;;;;;;11.73;47.25;99926.34;5012828;28;20026;-80
2022/10/20 05:38:51;;;;;;;54.17;34.60;;;;;;;11.65;47.54;99918.44;5012870;28;20104;-79
2022/10/20 05:41:19;;;;;;;56.40;36.75;;;;;;;11.95;47.32;99959.97;5012795;28;20481;-79
2022/10/20 05:43:49;;;;;;;50.20;38.40;;;;;;;11.54;47.19;99887.94;5011609;28;20026;-79
2022/10/20 05:46:15;;;;;;;63.28;41.28;;;;;;;12.21;47.77;99987.91;5012566;28;20112;-79
2022/10/20 05:48:41;;;;;;;68.90;41.65;;;;;;;12.09;47.38;99956.53;5011500;28;20033;-80
2022/10/20 05:51:12;;;;;;;68.55;46.53;;;;;;;11.67;47.57;99879.44;5012680;28;20029;-79
2022/10/20 05:53:38;;;;;;;68.22;45.03;;;;;;;11.40;46.94;99828.72;5006499;28;20044;-80
2022/10/20 05:56:06;;;;;;;76.18;49.03;;;;;;;12.42;46.99;99996.00;5003918;28;20465;-79
2022/10/20 05:58:31;;;;;;;71.32;45.47;;;;;;;11.99;47.42;99932.16;5001104;28;20030;-79
2022/10/20 06:01:05;;;;;;;64.15;42.55;;;;;;;12.61;47.78;100007.91;5011195;28;20083;-79
2022/10/20 06:03:31;;;;;;;36.20;28.38;;;;;;;12.38;49.10;99949.69;5012361;28;20030;-80
2022/10/20 06:06:00;;;;;;;29.05;24.42;;;;;;;12.31;50.20;99901.09;5012292;28;20033;-79
2022/10/20 06:08:29;;;;;;;22.55;18.90;;;;;;;12.98;51.91;99976.09;5009762;28;20045;-79
2022/10/20 06:10:55;;;;;;;21.48;19.15;;;;;;;12.51;52.18;99870.44;5009567;28;20025;-79
2022/10/20 06:13:20;;;;;;;19.50;17.40;;;;;;;13.15;52.78;99952.03;5011177;28;20049;-79
2022/10/20 06:15:46;;;;;;;20.40;17.30;;;;;;;13.65;53.12;99999.84;5010988;28;20029;-79
2022/10/20 06:18:12;;;;;;;23.52;18.17;;;;;;;13.67;52.80;99979.25;5012152;28;20056;-79
2022/10/20 06:20:38;;;;;;;17.75;15.55;;;;;;;13.69;52.97;99952.50;5011627;28;20030;-79
2022/10/20 06:23:03;;;;;;;18.55;16.65;;;;;;;14.02;52.45;99997.97;5011871;28;20487;-79
2022/10/20 06:25:29;;;;;;;19.85;16.88;;;;;;;14.08;52.83;99986.59;5009389;28;20117;-79
2022/10/20 06:27:54;;;;;;;18.10;16.30;;;;;;;14.07;52.56;99973.50;5010172;28;20038;-79
2022/10/20 06:30:20;;;;;;;21.20;17.25;;;;;;;13.88;52.46;99927.19;4993451;28;20053;-79
2022/10/20 06:32:45;;;;;;;18.00;15.93;;;;;;;14.39;52.42;99998.75;4994445;28;20069;-79
2022/10/20 06:35:10;;;;;;;20.77;17.80;;;;;;;13.98;51.78;99933.00;4990988;28;20026;-80
2022/10/20 06:37:36;;;;;;;17.73;15.85;;;;;;;14.70;52.01;100025.81;4997556;28;20022;-79
2022/10/20 06:40:01;;;;;;;18.58;16.63;;;;;;;14.72;52.03;100033.59;5003272;28;20030;-79
2022/10/20 06:42:27;;;;;;;19.17;16.02;;;;;;;14.80;51.71;100028.94;4998741;28;20030;-79
2022/10/20 06:44:54;;;;;;;16.85;15.05;;;;;;;14.49;51.85;99983.34;4990992;28;20084;-79
2022/10/20 06:47:19;;;;;;;18.98;15.73;;;;;;;14.53;51.90;99972.13;4991846;28;20037;-79
2022/10/20 06:49:47;;;;;;;19.27;15.25;;;;;;;14.96;51.82;100032.38;5010635;28;20037;-78
2022/10/20 06:52:13;;;;;;;20.73;14.32;;;;;;;14.98;51.93;100040.97;5011412;28;20036;-78
2022/10/20 06:54:38;;;;;;;18.13;14.63;;;;;;;14.66;51.58;99966.09;5004927;28;20037;-79
2022/10/20 06:57:04;;;;;;;16.17;14.57;;;;;;;14.77;51.57;100005.41;5001199;28;20036;-79
2022/10/20 06:59:29;;;;;;;15.52;14.02;;;;;;;15.40;51.21;100064.75;5006834;28;20489;-79
2022/10/20 07:01:54;;;;;;;17.10;15.30;;;;;;;15.45;51.11;100074.81;5008471;28;20021;-79
2022/10/20 07:04:20;;;;;;;15.35;13.73;;;;;;;15.43;50.79;100071.53;5007496;28;20501;-79
2022/10/20 07:06:46;;;;;;;15.85;14.10;;;;;;;15.57;50.77;100068.75;5002771;28;20188;-79
2022/10/20 07:09:17;;;;;;;16.23;13.93;;;;;;;15.64;51.07;100070.66;5001276;28;20033;-79
2022/10/20 07:11:43;;;;;;;19.75;17.65;;;;;;;15.62;50.76;100064.72;5010413;28;20506;-80
2022/10/20 07:14:11;;;;;;;18.08;15.25;;;;;;;15.75;50.92;100070.09;5007289;28;20125;-79
2022/10/20 07:16:37;;;;;;;16.13;13.95;;;;;;;15.49;50.79;100034.31;5002686;28;20053;-79
2022/10/20 07:19:04;;;;;;;17.98;14.63;;;;;;;15.78;50.62;100059.06;5002492;28;20022;-79
2022/10/20 07:21:30;;;;;;;20.00;14.70;;;;;;;15.40;50.30;100000.91;5014964;28;20034;-79
2022/10/20 07:23:56;;;;;;;22.02;15.55;;;;;;;15.28;50.07;99970.56;5012566;28;20052;-79
2022/10/20 07:26:27;;;;;;;23.08;18.88;;;;;;;15.97;49.83;100081.44;5015189;28;20022;-79
2022/10/20 07:28:55;;;;;;;19.40;15.77;;;;;;;15.86;49.75;100046.38;5011057;28;20406;-79
2022/10/20 07:31:25;;;;;;;21.40;15.25;;;;;;;16.18;49.89;100081.31;5008319;28;20399;-79
2022/10/20 07:33:51;;;;;;;16.92;13.80;;;;;;;16.00;49.75;100062.41;5006037;28;20025;-79
2022/10/20 07:36:19;;;;;;;18.10;14.30;;;;;;;16.30;49.57;100077.03;5013702;28;20029;-79
2022/10/20 07:38:46;;;;;;;15.93;14.32;;;;;;;16.19;49.41;100069.63;5013684;28;20057;-78
2022/10/20 07:41:11;;;;;;;14.07;12.68;;;;;;;15.87;48.58;99997.44;5004055;28;20038;-79
2022/10/20 07:43:38;;;;;;;17.95;15.07;;;;;;;16.49;48.62;100075.44;5010046;28;20029;-79
2022/10/20 07:46:04;;;;;;;19.40;15.95;;;;;;;15.86;48.64;99990.47;5017715;28;20080;-80
2022/10/20 07:48:30;;;;;;;18.70;14.23;;;;;;;15.82;48.57;99941.28;5010428;28;20033;-79
2022/10/20 07:51:12;;;;;;;18.52;14.68;;;;;;;16.71;48.18;100087.59;5009916;28;20055;-80
2022/10/20 07:53:37;;;;;;;17.30;13.00;;;;;;;16.03;47.53;99955.47;5013296;28;20396;-78
2022/10/20 07:56:03;;;;;;;17.60;13.65;;;;;;;16.43;47.49;100014.94;5011388;28;20032;-77
2022/10/20 07:58:28;;;;;;;18.33;14.15;;;;;;;16.53;47.17;100058.00;5001183;28;20034;-79
2022/10/20 08:00:53;;;;;;;16.70;13.73;;;;;;;16.68;46.67;100052.50;5008669;28;20065;-79
2022/10/20 08:03:19;;;;;;;19.73;11.93;;;;;;;16.73;46.09;100063.38;5012592;28;20446;-79
2022/10/20 08:05:44;;;;;;;20.88;13.95;;;;;;;16.57;45.79;100005.13;5012668;28;20068;-79
2022/10/20 08:08:09;;;;;;;18.92;12.65;;;;;;;17.07;45.34;100068.50;5009508;28;20050;-78
2022/10/20 08:10:35;;;;;;;13.38;11.68;;;;;;;16.43;45.21;99965.13;5013320;28;20503;-79
2022/10/20 08:13:00;;;;;;;19.23;11.43;;;;;;;17.13;45.36;100070.34;5011474;28;20030;-79
2022/10/20 08:15:26;;;;;;;17.42;11.45;;;;;;;16.91;45.12;100001.41;5006575;28;20101;-79
2022/10/20 08:17:51;;;;;;;13.43;12.02;;;;;;;16.97;45.08;100017.41;5016295;28;20033;-78
2022/10/20 08:20:16;;;;;;;13.40;10.02;;;;;;;17.34;45.05;100061.28;5021545;28;20071;-79
2022/10/20 08:22:42;;;;;;;14.75;10.68;;;;;;;17.66;44.92;100086.28;5006711;28;20019;-78
2022/10/20 08:25:12;;;;;;;13.98;10.50;;;;;;;17.73;44.53;100086.25;5008395;28;20450;-78
2022/10/20 08:27:37;;;;;;;15.60;11.35;;;;;;;16.30;44.31;99855.03;5011359;28;20025;-79
2022/10/20 08:30:03;;;;;;;12.57;9.98;;;;;;;17.35;44.08;100019.41;5013074;28;20030;-78
2022/10/20 08:32:28;;;;;;;15.90;11.68;;;;;;;17.66;43.91;100056.91;5009513;28;20030;-78
2022/10/20 08:34:54;;;;;;;12.82;10.57;;;;;;;16.77;43.95;99900.09;5012205;28;20033;-79
2022/10/20 08:37:19;;;;;;;19.63;11.07;;;;;;;17.99;43.78;100112.06;5009325;28;20034;-79
2022/10/20 08:39:45;;;;;;;14.52;10.65;;;;;;;17.84;43.36;100060.75;5002426;28;20022;-78
2022/10/20 08:42:10;;;;;;;17.63;10.90;;;;;;;17.57;43.03;100004.72;5008993;28;20030;-78
2022/10/20 08:44:38;;;;;;;13.60;10.40;;;;;;;18.10;43.07;100085.47;5009282;28;20034;-79
2022/10/20 08:47:14;;;;;;;14.10;10.27;;;;;;;17.96;42.89;100054.53;5006069;28;20026;-78
2022/10/20 08:49:40;;;;;;;11.55;10.20;;;;;;;18.05;42.70;100063.09;5002954;28;20034;-78
2022/10/20 08:52:11;;;;;;;11.65;9.98;;;;;;;17.80;42.35;100017.59;5002148;28;20039;-78
2022/10/20 08:54:37;;;;;;;11.25;10.10;;;;;;;18.15;42.42;100055.44;5002009;28;20113;-78
2022/10/20 08:57:14;;;;;;;13.30;10.95;;;;;;;17.89;42.03;100007.50;5000150;28;20128;-79
2022/10/20 08:59:39;;;;;;;12.02;10.48;;;;;;;17.98;42.29;100016.91;4994127;28;20053;-79
2022/10/20 09:02:15;;;;;;;11.00;9.25;;;;;;;17.94;41.93;100007.69;4998107;28;20100;-78
2022/10/20 09:04:54;;;;;;;12.15;10.85;;;;;;;18.52;41.74;100082.34;5009642;28;20028;-78
2022/10/20 09:07:31;;;;;;;10.73;9.57;;;;;;;18.71;41.59;100095.63;4993661;28;20050;-78
2022/10/20 09:10:14;;;;;;;14.23;12.43;;;;;;;18.79;41.32;100097.22;5011006;28;20470;-79
2022/10/20 09:12:42;;;;;;;14.38;12.10;;;;;;;18.86;41.33;100092.63;5008807;28;20033;-79
2022/10/20 09:15:12;;;;;;;11.23;10.07;;;;;;;18.71;40.98;100074.25;5010184;28;20072;-79
2022/10/20 09:17:45;;;;;;;10.43;9.32;;;;;;;18.63;40.66;100053.09;4999397;28;20034;-80
2022/10/20 09:20:18;;;;;;;11.43;9.15;;;;;;;19.04;40.55;100100.72;5009174;28;20061;-78
2022/10/20 09:22:45;;;;;;;13.75;10.13;;;;;;;18.82;40.89;100058.50;5007610;28;20105;-78
2022/10/20 09:25:22;;;;;;;11.40;8.98;;;;;;;18.68;40.28;100007.81;5011299;28;20030;-78
2022/10/20 09:27:49;;;;;;;11.27;10.07;;;;;;;19.15;40.06;100083.13;5000850;28;20518;-77
2022/10/20 09:30:21;;;;;;;11.60;9.93;;;;;;;19.24;40.08;100094.34;5004509;28;20038;-79
2022/10/20 09:32:48;;;;;;;11.35;10.07;;;;;;;19.40;39.77;100103.69;5001596;28;20034;-78
2022/10/20 09:35:20;;;;;;;13.70;10.18;;;;;;;18.91;39.44;100025.09;5008633;28;20038;-79
2022/10/20 09:38:16;;;;;;;12.65;10.10;;;;;;;19.15;39.05;100055.53;5003376;28;20026;-79
2022/10/20 09:41:28;;;;;;;12.60;9.15;;;;;;;19.36;39.01;100079.22;5008618;28;20029;-79
2022/10/20 09:44:01;;;;;;;12.25;9.07;;;;;;;19.58;39.01;100111.78;5000408;28;20108;-79
2022/10/20 09:46:31;;;;;;;12.52;8.75;;;;;;;19.23;38.37;100084.69;5003241;28;20034;-79
2022/10/20 09:48:57;;;;;;;11.43;10.32;;;;;;;19.54;38.69;100092.66;5009277;28;20041;-79
2022/10/20 09:51:25;;;;;;;15.45;12.60;;;;;;;18.54;38.31;99901.09;5012397;28;20022;-78
2022/10/20 09:54:01;;;;;;;19.42;14.02;;;;;;;19.49;38.33;100038.91;5010042;28;20395;-79
2022/10/20 09:56:37;;;;;;;10.65;9.40;;;;;;;19.61;38.03;100033.66;5011405;28;20037;-78
2022/10/20 09:59:08;;;;;;;11.38;9.80;;;;;;;19.83;37.94;100052.75;5008499;28;20081;-79
2022/10/20 10:01:33;;;;;;;11.50;9.80;;;;;;;20.02;38.23;100077.66;5011441;28;20025;-79
2022/10/20 10:04:00;;;;;;;11.00;9.73;;;;;;;19.16;37.46;99904.59;5007968;28;20395;-79
2022/10/20 10:06:41;;;;;;;9.27;8.30;;;;;;;20.49;37.55;100106.31;5011324;28;20129;-79
2022/10/20 10:09:29;;;;;;;13.32;9.30;;;;;;;20.38;37.36;100090.16;5011216;28;20123;-79
2022/10/20 10:12:18;;;;;;;11.65;9.73;;;;;;;19.49;36.95;99947.03;5004189;28;20061;-79
2022/10/20 10:14:53;;;;;;;10.48;9.40;;;;;;;20.03;37.61;100023.81;4999480;28;20064;-78
2022/10/20 10:17:41;;;;;;;11.90;9.23;;;;;;;20.52;37.00;100080.91;5026046;28;20030;-79
2022/10/20 10:20:28;;;;;;;12.95;9.90;;;;;;;20.75;36.17;100090.88;5009497;28;20033;-79
2022/10/20 10:23:13;;;;;;;13.23;9.60;;;;;;;20.80;36.33;100091.00;5009927;28;20116;-79
2022/10/20 10:25:38;;;;;;;17.58;11.88;;;;;;;20.74;36.28;100063.22;5004117;28;20491;-79
2022/10/20 10:28:19;;;;;;;15.35;9.55;;;;;;;20.70;36.27;100039.75;5004390;28;20048;-79
2022/10/20 10:30:44;;;;;;;11.75;9.20;;;;;;;20.93;36.09;100072.00;5001854;28;20034;-79
2022/10/20 10:33:32;;;;;;;9.82;8.82;;;;;;;20.79;35.77;100027.63;5005736;28;20030;-79
2022/10/20 10:36:00;;;;;;;9.68;8.68;;;;;;;20.98;35.98;100050.66;5011238;28;20049;-78
2022/10/20 10:38:27;;;;;;;9.13;8.32;;;;;;;20.97;35.87;100042.84;5010905;28;20037;-79
2022/10/20 10:41:43;;;;;;;9.63;8.32;;;;;;;21.36;35.58;100071.66;5013390;28;20049;-78
2022/10/20 10:44:23;;;;;;;11.32;8.25;;;;;;;21.48;35.37;100061.72;4981217;28;20050;-79
2022/10/20 10:47:28;;;;;;;11.27;9.90;;;;;;;21.51;35.14;100052.38;5008012;28;20095;-78
2022/10/20 10:50:31;;;;;;;10.13;9.05;;;;;;;21.69;34.90;100064.84;5013746;28;20041;-78
2022/10/20 10:52:56;;;;;;;10.20;8.73;;;;;;;21.66;34.83;100068.03;5008395;28;20068;-78
2022/10/20 10:55:32;;;;;;;10.68;8.70;;;;;;;21.70;34.58;100059.25;5007643;28;20084;-79
2022/10/20 10:58:10;;;;;;;9.07;8.18;;;;;;;21.75;34.62;100062.03;5006303;28;20138;-79
2022/10/20 11:00:41;;;;;;;10.35;8.10;;;;;;;21.76;34.25;100046.72;5008902;28;20092;-79
2022/10/20 11:03:19;;;;;;;9.05;7.47;;;;;;;21.80;34.47;100048.69;5001536;28;20072;-78
2022/10/20 11:06:15;;;;;;;9.05;8.15;;;;;;;21.61;34.47;100023.06;5009806;28;20038;-79
2022/10/20 11:08:46;;;;;;;9.57;8.45;;;;;;;21.86;34.41;100044.22;5006941;28;20061;-76
2022/10/20 11:11:32;;;;;;;9.35;8.40;;;;;;;21.87;33.92;100040.50;4996863;28;20509;-79
2022/10/20 11:14:21;;;;;;;11.23;7.45;;;;;;;21.52;34.20;99984.16;5005927;28;20068;-78
2022/10/20 11:17:06;;;;;;;10.68;9.07;;;;;;;21.54;33.18;99993.59;5007101;28;20121;-78
2022/10/20 11:19:43;;;;;;;8.18;7.45;;;;;;;21.75;34.16;100032.47;5007718;28;20053;-79
2022/10/20 11:22:30;;;;;;;10.32;8.77;;;;;;;21.64;34.11;100029.81;5001924;28;20033;-79
2022/10/20 11:25:04;;;;;;;10.13;8.80;;;;;;;21.60;33.91;100031.34;5003489;28;20053;-79
2022/10/20 11:27:34;;;;;;;10.23;7.65;;;;;;;20.50;34.59;99871.09;4991452;28;20037;-78
2022/10/20 11:30:15;;;;;;;10.38;8.25;;;;;;;21.32;34.42;100007.91;4993041;28;20026;-79
2022/10/20 11:33:07;;;;;;;8.82;7.95;;;;;;;21.36;34.37;100035.94;5010613;28;20030;-79